createdAt,value
2023-02-02T00:00:10.831Z,102006.03
2023-02-02T00:02:37.390Z,102004.31
2023-02-02T00:05:03.899Z,102008.72
2023-02-02T00:07:30.343Z,102009.66
2023-02-02T00:09:56.782Z,102013.13
2023-02-02T00:12:23.150Z,102007.78
2023-02-02T00:14:49.519Z,102006.03
2023-02-02T00:17:15.878Z,101996.31
2023-02-02T00:19:42.343Z,101996.31
2023-02-02T00:22:08.698Z,101991.91
2023-02-02T00:24:35.084Z,101993.66
2023-02-02T00:27:01.503Z,101986.59
2023-02-02T00:29:30.544Z,102000.78
2023-02-02T00:31:57.381Z,102007.88
2023-02-02T00:34:24.372Z,101993.72
2023-02-02T00:36:51.354Z,101998.13
2023-02-02T00:39:20.807Z,101998.19
2023-02-02T00:41:47.485Z,101997.28
2023-02-02T00:44:32.955Z,101993.78
2023-02-02T00:46:59.411Z,101988.56
2023-02-02T00:49:25.915Z,101990.28
2023-02-02T00:51:52.388Z,101998.28
2023-02-02T00:54:18.986Z,101996.47
2023-02-02T00:56:45.389Z,101995.63
2023-02-02T00:59:12.194Z,101996.47
2023-02-02T01:01:38.751Z,101998.34
2023-02-02T01:04:05.277Z,102006.28
2023-02-02T01:06:31.724Z,102009.00
2023-02-02T01:08:58.089Z,102017.03
2023-02-02T01:11:25.562Z,102009.94
2023-02-02T01:13:52.346Z,102004.63
2023-02-02T01:16:18.911Z,102014.38
2023-02-02T01:18:45.324Z,101997.56
2023-02-02T01:21:12.586Z,102008.09
2023-02-02T01:23:39.743Z,102009.94
2023-02-02T01:26:08.721Z,102009.91
2023-02-02T01:28:35.665Z,102003.75
2023-02-02T01:31:14.529Z,102012.63
2023-02-02T01:33:43.665Z,102007.38
2023-02-02T01:36:14.717Z,102017.97
2023-02-02T01:38:42.363Z,102021.63
2023-02-02T01:41:13.035Z,102023.31
2023-02-02T01:43:45.324Z,102024.22
2023-02-02T01:46:12.579Z,102024.25
2023-02-02T01:48:41.627Z,102028.69
2023-02-02T01:51:12.673Z,102028.69
2023-02-02T01:53:41.032Z,102030.50
2023-02-02T01:56:10.299Z,102030.44
2023-02-02T01:58:40.258Z,102030.44
2023-02-02T02:01:07.051Z,102028.69
2023-02-02T02:03:36.068Z,102021.56
2023-02-02T02:06:07.136Z,102009.09
2023-02-02T02:08:39.106Z,102011.78
2023-02-02T02:11:06.437Z,102002.97
2023-02-02T02:13:55.460Z,102004.69
2023-02-02T02:16:46.335Z,102002.06
2023-02-02T02:20:04.623Z,102004.84
2023-02-02T02:23:17.098Z,102003.13
2023-02-02T02:26:20.095Z,101996.94
2023-02-02T02:29:02.493Z,101998.72
2023-02-02T02:31:32.564Z,102008.44
2023-02-02T02:34:37.226Z,102006.59
2023-02-02T02:37:37.417Z,101997.94
2023-02-02T02:40:11.219Z,101997.78
2023-02-02T02:42:43.620Z,102000.44
2023-02-02T02:45:12.742Z,101997.78
2023-02-02T02:47:41.143Z,102002.16
2023-02-02T02:50:08.323Z,102006.59
2023-02-02T02:52:36.152Z,102001.25
2023-02-02T02:55:06.249Z,102025.25
2023-02-02T02:57:58.780Z,102013.72
2023-02-02T03:00:38.961Z,102021.72
2023-02-02T03:03:21.785Z,102016.38
2023-02-02T03:06:01.301Z,102006.59
2023-02-02T03:08:44.042Z,102025.31
2023-02-02T03:11:12.881Z,102013.78
2023-02-02T03:13:41.401Z,102017.25
2023-02-02T03:16:09.341Z,102017.31
2023-02-02T03:18:35.852Z,102017.25
2023-02-02T03:21:02.397Z,102020.84
2023-02-02T03:23:28.848Z,102008.44
2023-02-02T03:25:55.754Z,102017.19
2023-02-02T03:28:23.961Z,102013.66
2023-02-02T03:30:51.790Z,102019.03
2023-02-02T03:33:18.700Z,102018.16
2023-02-02T03:35:45.240Z,102012.84
2023-02-02T03:38:12.645Z,102004.00
2023-02-02T03:40:40.276Z,102005.66
2023-02-02T03:43:06.851Z,102013.72
2023-02-02T03:45:35.494Z,102021.66
2023-02-02T03:48:05.854Z,102010.13
2023-02-02T03:50:33.160Z,102023.50
2023-02-02T03:52:59.633Z,102013.72
2023-02-02T03:55:26.249Z,102010.13
2023-02-02T03:57:52.799Z,102012.78
2023-02-02T04:00:19.576Z,102017.19
2023-02-02T04:02:46.551Z,102018.13
2023-02-02T04:05:12.971Z,102020.78
2023-02-02T04:07:39.434Z,102018.13
2023-02-02T04:10:06.141Z,102019.03
2023-02-02T04:12:32.575Z,102031.44
2023-02-02T04:14:58.969Z,102025.31
2023-02-02T04:17:25.394Z,102034.13
2023-02-02T04:19:57.948Z,102032.38
2023-02-02T04:22:25.961Z,102043.84
2023-02-02T04:24:52.393Z,102040.38
2023-02-02T04:27:19.391Z,102047.44
2023-02-02T04:29:45.818Z,102036.91
2023-02-02T04:32:14.146Z,102051.91
2023-02-02T04:34:40.596Z,102032.44
2023-02-02T04:37:06.953Z,102048.38
2023-02-02T04:39:33.337Z,102043.94
2023-02-02T04:41:59.719Z,102046.56
2023-02-02T04:44:26.191Z,102059.03
2023-02-02T04:46:52.577Z,102042.19
2023-02-02T04:49:18.999Z,102045.78
2023-02-02T04:51:45.448Z,102049.19
2023-02-02T04:54:11.858Z,102064.41
2023-02-02T04:56:38.219Z,102067.94
2023-02-02T04:59:04.622Z,102065.25
2023-02-02T05:01:31.326Z,102072.38
2023-02-02T05:03:57.859Z,102071.44
2023-02-02T05:06:24.896Z,102077.72
2023-02-02T05:08:51.413Z,102073.25
2023-02-02T05:11:22.669Z,102074.13
2023-02-02T05:13:51.468Z,102070.53
2023-02-02T05:16:18.324Z,102061.66
2023-02-02T05:18:52.886Z,102068.78
2023-02-02T05:21:20.224Z,102054.59
2023-02-02T05:23:47.095Z,102063.53
2023-02-02T05:26:20.900Z,102056.38
2023-02-02T05:28:48.359Z,102041.38
2023-02-02T05:31:14.923Z,102049.38
2023-02-02T05:33:41.494Z,102045.78
2023-02-02T05:36:08.277Z,102056.47
2023-02-02T05:38:35.189Z,102059.94
2023-02-02T05:41:02.454Z,102070.59
2023-02-02T05:43:30.380Z,102075.13
2023-02-02T05:45:56.854Z,102077.81
2023-02-02T05:48:23.614Z,102068.91
2023-02-02T05:51:15.021Z,102075.06
2023-02-02T05:53:41.476Z,102072.53
2023-02-02T05:56:07.890Z,102068.94
2023-02-02T05:58:34.261Z,102060.13
2023-02-02T06:01:00.625Z,102067.19
2023-02-02T06:03:27.168Z,102067.19
2023-02-02T06:05:53.676Z,102072.53
2023-02-02T06:08:20.130Z,102077.84
2023-02-02T06:10:46.587Z,102072.53
2023-02-02T06:13:13.028Z,102076.13
2023-02-02T06:15:39.621Z,102072.59
2023-02-02T06:18:08.327Z,102075.22
2023-02-02T06:20:35.593Z,102077.00
2023-02-02T06:23:02.423Z,102081.53
2023-02-02T06:25:28.987Z,102078.84
2023-02-02T06:27:59.530Z,102076.19
2023-02-02T06:30:26.936Z,102086.84
2023-02-02T06:32:53.891Z,102104.59
2023-02-02T06:35:20.480Z,102099.34
2023-02-02T06:37:46.979Z,102094.88
2023-02-02T06:40:13.752Z,102104.66
2023-02-02T06:42:40.987Z,102093.94
2023-02-02T06:45:07.977Z,102085.97
2023-02-02T06:47:34.375Z,102109.91
2023-02-02T06:50:00.806Z,102100.19
2023-02-02T06:52:27.197Z,102101.94
2023-02-02T06:54:53.683Z,102111.75
2023-02-02T06:57:20.236Z,102102.00
2023-02-02T06:59:47.189Z,102116.19
2023-02-02T07:02:14.095Z,102113.53
2023-02-02T07:04:40.572Z,102118.00
2023-02-02T07:07:07.019Z,102117.97
2023-02-02T07:09:34.197Z,102109.97
2023-02-02T07:12:00.692Z,102122.41
2023-02-02T07:14:27.179Z,102123.31
2023-02-02T07:16:53.814Z,102115.31
2023-02-02T07:19:20.344Z,102129.53
2023-02-02T07:21:46.753Z,102123.31
2023-02-02T07:24:13.170Z,102123.38
2023-02-02T07:26:39.663Z,102128.59
2023-02-02T07:29:06.547Z,102122.41
2023-02-02T07:31:35.899Z,102125.06
2023-02-02T07:34:02.847Z,102133.91
2023-02-02T07:36:29.318Z,102133.00
2023-02-02T07:38:57.369Z,102119.66
2023-02-02T07:41:24.570Z,102127.66
2023-02-02T07:43:51.857Z,102130.25
2023-02-02T07:46:19.050Z,102124.97
2023-02-02T07:48:45.775Z,102131.13
2023-02-02T07:51:15.638Z,102132.84
2023-02-02T07:53:47.001Z,102136.38
2023-02-02T07:56:20.033Z,102129.25
2023-02-02T07:58:47.302Z,102127.44
2023-02-02T08:01:15.652Z,102125.72
2023-02-02T08:03:43.078Z,102138.97
2023-02-02T08:06:21.749Z,102143.38
2023-02-02T08:08:48.857Z,102154.03
2023-02-02T08:11:17.457Z,102139.78
2023-02-02T08:13:44.677Z,102136.22
2023-02-02T08:16:11.776Z,102154.78
2023-02-02T08:18:38.636Z,102155.66
2023-02-02T08:21:07.745Z,102152.97
2023-02-02T08:23:35.872Z,102164.44
2023-02-02T08:26:13.385Z,102172.38
2023-02-02T08:28:42.207Z,102159.00
2023-02-02T08:31:11.974Z,102166.88
2023-02-02T08:33:39.597Z,102172.16
2023-02-02T08:36:11.331Z,102164.16
2023-02-02T08:38:37.714Z,102165.88
2023-02-02T08:41:06.067Z,102164.94
2023-02-02T08:43:32.523Z,102157.81
2023-02-02T08:46:12.663Z,102157.72
2023-02-02T08:48:39.814Z,102170.97
2023-02-02T08:51:07.873Z,102168.25
2023-02-02T08:53:34.472Z,102172.69
2023-02-02T08:56:11.268Z,102183.22
2023-02-02T08:58:38.157Z,102184.09
2023-02-02T09:01:11.864Z,102181.34
2023-02-02T09:03:40.213Z,102185.75
2023-02-02T09:06:08.560Z,102195.41
2023-02-02T09:08:35.076Z,102197.25
2023-02-02T09:11:10.534Z,102211.31
2023-02-02T09:13:38.137Z,102216.63
2023-02-02T09:16:07.076Z,102228.16
2023-02-02T09:18:33.533Z,102233.56
2023-02-02T09:21:01.774Z,102238.78
2023-02-02T09:23:33.978Z,102231.63
2023-02-02T09:26:09.390Z,102239.63
2023-02-02T09:28:37.694Z,102235.16
2023-02-02T09:31:06.772Z,102250.13
2023-02-02T09:33:33.513Z,102258.97
2023-02-02T09:36:08.406Z,102263.38
2023-02-02T09:38:35.299Z,102265.97
2023-02-02T09:41:10.725Z,102265.88
2023-02-02T09:44:04.793Z,102275.63
2023-02-02T09:46:58.758Z,102283.59
2023-02-02T09:49:34.603Z,102282.66
2023-02-02T09:52:08.481Z,102270.16
2023-02-02T09:54:40.929Z,102279.88
2023-02-02T09:57:16.957Z,102296.72
2023-02-02T09:59:45.265Z,102289.63
2023-02-02T10:02:23.364Z,102293.09
2023-02-02T10:04:54.028Z,102306.41
2023-02-02T10:07:27.927Z,102302.78
2023-02-02T10:10:01.241Z,102318.72
2023-02-02T10:12:43.729Z,102310.72
2023-02-02T10:15:35.726Z,102309.78
2023-02-02T10:18:25.069Z,102325.78
2023-02-02T10:20:57.703Z,102317.72
2023-02-02T10:23:44.867Z,102320.38
2023-02-02T10:26:37.828Z,102318.53
2023-02-02T10:29:11.884Z,102320.22
2023-02-02T10:31:44.595Z,102329.91
2023-02-02T10:34:21.302Z,102325.47
2023-02-02T10:36:55.707Z,102319.22
2023-02-02T10:39:34.656Z,102329.91
2023-02-02T10:42:16.578Z,102331.66
2023-02-02T10:44:52.981Z,102336.06
2023-02-02T10:47:29.262Z,102334.31
2023-02-02T10:50:18.031Z,102318.28
2023-02-02T10:53:00.114Z,102312.00
2023-02-02T10:55:35.288Z,102318.19
2023-02-02T10:58:13.341Z,102323.59
2023-02-02T11:00:53.169Z,102327.06
2023-02-02T11:03:26.379Z,102325.22
2023-02-02T11:06:11.978Z,102321.56
2023-02-02T11:08:47.417Z,102325.91
2023-02-02T11:11:21.359Z,102328.50
2023-02-02T11:13:59.097Z,102336.41
2023-02-02T11:16:38.832Z,102339.88
2023-02-02T11:19:27.992Z,102339.88
2023-02-02T11:21:57.031Z,102340.63
2023-02-02T11:24:31.554Z,102341.44
2023-02-02T11:27:13.746Z,102344.03
2023-02-02T11:29:40.071Z,102359.16
2023-02-02T11:32:37.683Z,102345.91
2023-02-02T11:35:04.067Z,102347.63
2023-02-02T11:37:31.940Z,102344.03
2023-02-02T11:40:38.854Z,102341.28
2023-02-02T11:43:22.757Z,102329.75
2023-02-02T11:45:56.923Z,102333.13
2023-02-02T11:48:28.831Z,102334.91
2023-02-02T11:50:57.717Z,102320.66
2023-02-02T11:53:35.804Z,102319.66
2023-02-02T11:56:07.087Z,102316.03
2023-02-02T11:58:59.161Z,102320.44
2023-02-02T12:01:26.905Z,102314.03
2023-02-02T12:03:56.482Z,102309.31
2023-02-02T12:06:24.493Z,102303.78
2023-02-02T12:08:56.877Z,102302.75
2023-02-02T12:11:42.000Z,102299.81
2023-02-02T12:14:28.243Z,102296.13
2023-02-02T12:17:14.176Z,102296.97
2023-02-02T12:20:02.300Z,102302.13
2023-02-02T12:22:41.595Z,102288.63
2023-02-02T12:25:46.490Z,102278.84
2023-02-02T12:28:28.703Z,102290.28
2023-02-02T12:31:29.364Z,102282.28
2023-02-02T12:34:01.572Z,102277.72
2023-02-02T12:36:49.552Z,102280.38
2023-02-02T12:39:34.272Z,102275.91
2023-02-02T12:42:19.878Z,102283.06
2023-02-02T12:44:54.005Z,102282.19
2023-02-02T12:47:30.847Z,102284.94
2023-02-02T12:50:15.312Z,102272.47
2023-02-02T12:53:00.099Z,102276.06
2023-02-02T12:55:51.539Z,102281.50
2023-02-02T12:58:37.293Z,102274.44
2023-02-02T13:01:40.966Z,102281.53
2023-02-02T13:04:31.556Z,102277.00
2023-02-02T13:07:03.768Z,102282.28
2023-02-02T13:09:41.204Z,102292.03
2023-02-02T13:12:10.110Z,102288.41
2023-02-02T13:14:49.460Z,102290.97
2023-02-02T13:17:26.386Z,102290.97
2023-02-02T13:19:58.413Z,102281.03
2023-02-02T13:22:34.325Z,102272.81
2023-02-02T13:25:08.414Z,102263.84
2023-02-02T13:27:36.562Z,102265.47
2023-02-02T13:30:32.782Z,102263.41
2023-02-02T13:33:02.991Z,102269.41
2023-02-02T13:35:45.611Z,102269.25
2023-02-02T13:38:18.240Z,102271.81
2023-02-02T13:40:44.782Z,102265.63
2023-02-02T13:43:48.181Z,102262.94
2023-02-02T13:46:17.585Z,102266.50
2023-02-02T13:49:07.880Z,102266.47
2023-02-02T13:51:59.371Z,102275.31
2023-02-02T13:54:49.176Z,102265.53
2023-02-02T13:57:24.485Z,102267.28
2023-02-02T14:00:01.698Z,102264.72
2023-02-02T14:02:45.601Z,102274.63
2023-02-02T14:05:26.787Z,102285.41
2023-02-02T14:08:08.706Z,102281.81
2023-02-02T14:10:39.734Z,102284.47
2023-02-02T14:13:38.753Z,102285.31
2023-02-02T14:16:08.024Z,102284.47
2023-02-02T14:18:53.753Z,102278.22
2023-02-02T14:21:32.501Z,102277.28
2023-02-02T14:24:03.057Z,102283.47
2023-02-02T14:27:00.568Z,102278.13
2023-02-02T14:29:29.326Z,102282.38
2023-02-02T14:31:58.807Z,102287.59
2023-02-02T14:34:39.170Z,102287.53
2023-02-02T14:37:20.588Z,102290.19
2023-02-02T14:40:06.084Z,102294.72
2023-02-02T14:43:03.060Z,102284.91
2023-02-02T14:45:34.818Z,102290.28
2023-02-02T14:48:16.105Z,102293.75
2023-02-02T14:50:47.943Z,102300.88
2023-02-02T14:53:19.099Z,102297.47
2023-02-02T14:55:56.612Z,102293.97
2023-02-02T14:58:26.137Z,102293.19
2023-02-02T15:01:24.932Z,102297.84
2023-02-02T15:03:54.616Z,102298.81
2023-02-02T15:06:42.189Z,102306.94
2023-02-02T15:09:20.940Z,102307.91
2023-02-02T15:12:01.995Z,102321.38
2023-02-02T15:14:52.988Z,102323.31
2023-02-02T15:17:50.017Z,102315.41
2023-02-02T15:20:26.622Z,102327.88
2023-02-02T15:23:26.721Z,102327.94
2023-02-02T15:26:13.201Z,102327.13
2023-02-02T15:28:48.658Z,102326.28
2023-02-02T15:31:41.522Z,102325.53
2023-02-02T15:34:17.377Z,102331.75
2023-02-02T15:36:46.550Z,102322.00
2023-02-02T15:39:26.827Z,102327.25
2023-02-02T15:42:17.068Z,102328.25
2023-02-02T15:44:43.727Z,102332.72
2023-02-02T15:47:16.926Z,102336.22
2023-02-02T15:49:43.816Z,102332.72
2023-02-02T15:52:14.266Z,102341.69
2023-02-02T15:54:50.813Z,102350.69
2023-02-02T15:57:29.290Z,102347.22
2023-02-02T15:59:56.671Z,102363.28
2023-02-02T16:02:31.798Z,102350.84
2023-02-02T16:04:58.199Z,102358.09
2023-02-02T16:07:33.820Z,102353.66
2023-02-02T16:10:07.617Z,102361.78
2023-02-02T16:12:34.413Z,102358.31
2023-02-02T16:15:01.145Z,102366.34
2023-02-02T16:17:32.804Z,102373.47
2023-02-02T16:20:19.735Z,102374.47
2023-02-02T16:22:47.124Z,102384.75
2023-02-02T16:25:16.583Z,102389.03
2023-02-02T16:27:46.257Z,102390.78
2023-02-02T16:30:25.749Z,102403.25
2023-02-02T16:32:52.237Z,102402.44
2023-02-02T16:35:37.692Z,102397.97
2023-02-02T16:38:14.384Z,102415.88
2023-02-02T16:40:41.243Z,102407.00
2023-02-02T16:43:20.421Z,102408.84
2023-02-02T16:46:00.874Z,102410.72
2023-02-02T16:48:35.389Z,102414.31
2023-02-02T16:51:25.441Z,102417.00
2023-02-02T16:54:13.699Z,102415.38
2023-02-02T16:56:43.494Z,102417.97
2023-02-02T16:59:35.365Z,102418.81
2023-02-02T17:02:21.003Z,102412.72
2023-02-02T17:04:51.459Z,102411.91
2023-02-02T17:07:18.599Z,102414.56
2023-02-02T17:09:48.382Z,102419.06
2023-02-02T17:12:34.813Z,102430.63
2023-02-02T17:15:05.988Z,102433.78
2023-02-02T17:17:32.408Z,102432.69
2023-02-02T17:19:58.857Z,102435.28
2023-02-02T17:22:27.628Z,102429.91
2023-02-02T17:24:55.086Z,102432.59
2023-02-02T17:27:27.685Z,102423.69
2023-02-02T17:29:56.152Z,102422.00
2023-02-02T17:32:24.723Z,102426.47
2023-02-02T17:34:51.197Z,102419.44
2023-02-02T17:37:17.568Z,102419.44
2023-02-02T17:39:44.063Z,102428.34
2023-02-02T17:42:26.968Z,102429.19
2023-02-02T17:44:53.800Z,102433.75
2023-02-02T17:47:20.216Z,102427.41
2023-02-02T17:49:46.643Z,102436.44
2023-02-02T17:52:13.409Z,102439.03
2023-02-02T17:54:39.955Z,102435.56
2023-02-02T17:57:06.442Z,102436.50
2023-02-02T17:59:32.815Z,102447.06
2023-02-02T18:01:59.347Z,102441.72
2023-02-02T18:04:26.852Z,102441.72
2023-02-02T18:06:53.256Z,102445.31
2023-02-02T18:09:19.731Z,102448.81
2023-02-02T18:11:48.863Z,102447.16
2023-02-02T18:14:15.521Z,102438.22
2023-02-02T18:16:41.933Z,102445.34
2023-02-02T18:19:08.378Z,102452.56
2023-02-02T18:21:34.758Z,102439.19
2023-02-02T18:24:01.310Z,102432.09
2023-02-02T18:26:27.788Z,102435.72
2023-02-02T18:28:54.508Z,102441.06
2023-02-02T18:31:23.660Z,102442.88
2023-02-02T18:33:50.754Z,102445.63
2023-02-02T18:36:20.202Z,102446.50
2023-02-02T18:38:48.472Z,102431.44
2023-02-02T18:41:16.624Z,102436.88
2023-02-02T18:43:44.620Z,102438.63
2023-02-02T18:46:13.701Z,102435.06
2023-02-02T18:48:41.317Z,102426.19
2023-02-02T18:51:10.828Z,102429.75
2023-02-02T18:53:37.420Z,102433.31
2023-02-02T18:56:05.459Z,102431.53
2023-02-02T18:58:33.849Z,102424.41
2023-02-02T19:01:07.352Z,102420.84
2023-02-02T19:03:36.399Z,102426.19
2023-02-02T19:06:25.534Z,102426.19
2023-02-02T19:08:52.212Z,102436.03
2023-02-02T19:11:21.850Z,102437.78
2023-02-02T19:13:49.036Z,102438.69
2023-02-02T19:16:31.421Z,102432.50
2023-02-02T19:19:04.294Z,102436.97
2023-02-02T19:21:30.905Z,102431.69
2023-02-02T19:23:59.290Z,102436.09
2023-02-02T19:26:28.019Z,102429.84
2023-02-02T19:29:00.296Z,102429.84
2023-02-02T19:31:27.891Z,102437.91
2023-02-02T19:33:54.346Z,102436.09
2023-02-02T19:36:23.811Z,102448.53
2023-02-02T19:38:57.086Z,102448.66
2023-02-02T19:41:25.633Z,102445.94
2023-02-02T19:43:58.363Z,102443.25
2023-02-02T19:46:27.084Z,102445.97
2023-02-02T19:49:03.242Z,102446.84
2023-02-02T19:51:52.496Z,102442.50
2023-02-02T19:54:37.146Z,102447.84
2023-02-02T19:57:16.013Z,102443.38
2023-02-02T19:59:45.120Z,102446.06
2023-02-02T20:02:43.623Z,102429.19
2023-02-02T20:05:23.297Z,102425.59
2023-02-02T20:07:56.540Z,102424.72
2023-02-02T20:10:30.125Z,102419.38
2023-02-02T20:12:56.504Z,102416.72
2023-02-02T20:15:35.285Z,102422.94
2023-02-02T20:18:11.444Z,102424.72
2023-02-02T20:20:39.980Z,102414.13
2023-02-02T20:23:28.787Z,102423.00
2023-02-02T20:25:56.180Z,102426.63
2023-02-02T20:28:43.283Z,102432.81
2023-02-02T20:31:13.559Z,102430.22
2023-02-02T20:33:43.222Z,102427.50
2023-02-02T20:36:40.136Z,102424.88
2023-02-02T20:39:26.338Z,102432.91
2023-02-02T20:41:54.891Z,102427.63
2023-02-02T20:44:21.463Z,102434.69
2023-02-02T20:46:48.196Z,102430.22
2023-02-02T20:49:14.924Z,102427.56
2023-02-02T20:51:41.375Z,102427.63
2023-02-02T20:54:09.801Z,102438.19
2023-02-02T20:56:36.646Z,102430.22
2023-02-02T20:59:04.814Z,102421.34
2023-02-02T21:01:32.265Z,102429.38
2023-02-02T21:03:58.656Z,102431.16
2023-02-02T21:06:26.768Z,102430.28
2023-02-02T21:08:54.007Z,102446.31
2023-02-02T21:11:20.408Z,102450.75
2023-02-02T21:13:46.809Z,102449.03
2023-02-02T21:16:13.225Z,102457.97
2023-02-02T21:18:39.660Z,102454.41
2023-02-02T21:21:06.080Z,102459.75
2023-02-02T21:23:32.503Z,102464.19
2023-02-02T21:25:58.928Z,102463.34
2023-02-02T21:28:25.338Z,102471.31
2023-02-02T21:30:51.820Z,102463.34
2023-02-02T21:33:18.243Z,102469.59
2023-02-02T21:35:44.584Z,102473.13
2023-02-02T21:38:14.208Z,102455.28
2023-02-02T21:40:41.463Z,102465.16
2023-02-02T21:43:26.657Z,102469.66
2023-02-02T21:45:53.243Z,102450.06
2023-02-02T21:48:22.318Z,102458.00
2023-02-02T21:50:48.793Z,102465.19
2023-02-02T21:53:19.065Z,102468.69
2023-02-02T21:56:09.114Z,102476.75
2023-02-02T21:58:39.928Z,102460.75
2023-02-02T22:01:29.619Z,102475.88
2023-02-02T22:03:56.019Z,102473.28
2023-02-02T22:06:32.596Z,102476.78
2023-02-02T22:09:14.209Z,102463.44
2023-02-02T22:11:49.487Z,102470.59
2023-02-02T22:14:38.319Z,102466.13
2023-02-02T22:17:39.752Z,102466.25
2023-02-02T22:20:24.960Z,102460.91
2023-02-02T22:22:52.037Z,102461.78
2023-02-02T22:25:18.499Z,102449.28
2023-02-02T22:27:57.550Z,102455.50
2023-02-02T22:30:28.500Z,102467.09
2023-02-02T22:32:55.514Z,102471.53
2023-02-02T22:35:21.950Z,102463.53
2023-02-02T22:37:48.293Z,102467.97
2023-02-02T22:40:16.351Z,102466.19
2023-02-02T22:42:43.071Z,102460.91
2023-02-02T22:45:09.648Z,102459.09
2023-02-02T22:47:36.001Z,102466.19
2023-02-02T22:50:02.426Z,102463.53
2023-02-02T22:52:28.826Z,102480.47
2023-02-02T22:54:55.210Z,102476.88
2023-02-02T22:57:21.552Z,102442.19
2023-02-02T22:59:47.890Z,102442.19
2023-02-02T23:02:14.291Z,102466.25
2023-02-02T23:04:40.729Z,102467.09
2023-02-02T23:07:07.133Z,102466.25
2023-02-02T23:09:33.813Z,102471.59
2023-02-02T23:12:00.252Z,102462.66
2023-02-02T23:14:26.583Z,102456.44
2023-02-02T23:16:52.941Z,102468.00
2023-02-02T23:19:19.323Z,102473.34
2023-02-02T23:21:45.699Z,102471.59
2023-02-02T23:24:12.098Z,102467.19
2023-02-02T23:26:38.501Z,102474.25
2023-02-02T23:29:04.857Z,102460.03
2023-02-02T23:31:31.444Z,102466.25
2023-02-02T23:33:58.039Z,102461.84
2023-02-02T23:36:24.462Z,102455.56
2023-02-02T23:38:50.854Z,102448.47
2023-02-02T23:41:18.557Z,102444.94
2023-02-02T23:43:44.917Z,102436.00
2023-02-02T23:46:11.407Z,102428.03
2023-02-02T23:48:38.129Z,102422.72
2023-02-02T23:51:04.617Z,102421.78
2023-02-02T23:53:31.037Z,102410.25
2023-02-02T23:55:57.412Z,102393.31
2023-02-02T23:58:23.777Z,102389.75
